createdAt,value
2023-01-17T00:00:06.174Z,937.88
2023-01-17T00:00:56.096Z,937.88
2023-01-17T00:01:46.121Z,937.88
2023-01-17T00:02:36.170Z,937.85
2023-01-17T00:03:26.105Z,937.96
2023-01-17T00:04:16.096Z,937.85
2023-01-17T00:05:06.062Z,937.82
2023-01-17T00:05:56.076Z,937.79
2023-01-17T00:06:46.034Z,937.86
2023-01-17T00:07:36.059Z,937.83
2023-01-17T00:08:26.033Z,937.86
2023-01-17T00:09:16.005Z,937.84
2023-01-17T00:10:06.018Z,937.84
2023-01-17T00:10:56.004Z,937.87
2023-01-17T00:11:45.976Z,937.84
2023-01-17T00:12:42.981Z,937.92
2023-01-17T00:13:32.956Z,937.92
2023-01-17T00:14:22.961Z,937.91
2023-01-17T00:15:05.947Z,937.88
2023-01-17T00:15:55.966Z,937.89
2023-01-17T00:16:45.931Z,937.87
2023-01-17T00:17:35.944Z,937.91
2023-01-17T00:18:25.924Z,937.95
2023-01-17T00:19:15.917Z,937.91
2023-01-17T00:20:05.938Z,937.97
2023-01-17T00:20:55.893Z,937.95
2023-01-17T00:21:45.886Z,937.80
2023-01-17T00:22:35.882Z,937.89
2023-01-17T00:23:25.881Z,937.82
2023-01-17T00:24:15.852Z,937.88
2023-01-17T00:25:05.838Z,937.87
2023-01-17T00:25:55.865Z,937.91
2023-01-17T00:26:45.828Z,937.99
2023-01-17T00:27:35.830Z,937.94
2023-01-17T00:28:25.807Z,937.93
2023-01-17T00:29:15.814Z,937.93
2023-01-17T00:30:05.803Z,937.94
2023-01-17T00:30:55.797Z,937.95
2023-01-17T00:31:45.815Z,937.95
2023-01-17T00:32:35.795Z,937.85
2023-01-17T00:33:25.739Z,937.93
2023-01-17T00:34:15.760Z,937.91
2023-01-17T00:35:05.789Z,937.96
2023-01-17T00:35:55.734Z,937.92
2023-01-17T00:36:45.703Z,937.97
2023-01-17T00:37:35.742Z,937.99
2023-01-17T00:38:25.731Z,938.00
2023-01-17T00:39:15.700Z,938.09
2023-01-17T00:40:05.680Z,938.09
2023-01-17T00:40:55.659Z,938.10
2023-01-17T00:41:45.657Z,938.14
2023-01-17T00:42:35.665Z,938.11
2023-01-17T00:43:25.655Z,938.13
2023-01-17T00:44:15.636Z,938.19
2023-01-17T00:45:05.615Z,938.15
2023-01-17T00:45:55.619Z,938.19
2023-01-17T00:46:45.701Z,938.16
2023-01-17T00:47:35.629Z,938.15
2023-01-17T00:48:25.599Z,938.25
2023-01-17T00:49:15.588Z,938.22
2023-01-17T00:50:05.565Z,938.16
2023-01-17T00:50:55.561Z,938.14
2023-01-17T00:51:45.555Z,938.17
2023-01-17T00:52:35.575Z,938.19
2023-01-17T00:53:25.547Z,938.10
2023-01-17T00:54:17.505Z,938.17
2023-01-17T00:55:05.532Z,938.10
2023-01-17T00:55:55.501Z,938.19
2023-01-17T00:56:45.496Z,938.22
2023-01-17T00:57:35.526Z,938.19
2023-01-17T00:58:25.503Z,938.18
2023-01-17T00:59:15.456Z,938.20
2023-01-17T01:00:05.469Z,938.26
2023-01-17T01:00:55.552Z,938.23
2023-01-17T01:01:45.580Z,938.24
2023-01-17T01:02:35.511Z,938.26
2023-01-17T01:03:25.425Z,938.26
2023-01-17T01:04:15.436Z,938.29
2023-01-17T01:05:05.403Z,938.31
2023-01-17T01:05:55.405Z,938.27
2023-01-17T01:06:45.392Z,938.26
2023-01-17T01:07:35.404Z,938.22
2023-01-17T01:08:25.380Z,938.26
2023-01-17T01:09:15.415Z,938.23
2023-01-17T01:10:05.356Z,938.23
2023-01-17T01:10:55.401Z,938.23
2023-01-17T01:11:45.353Z,938.22
2023-01-17T01:12:35.357Z,938.28
2023-01-17T01:13:25.314Z,938.26
2023-01-17T01:14:15.300Z,938.29
2023-01-17T01:15:05.308Z,938.32
2023-01-17T01:15:55.325Z,938.37
2023-01-17T01:16:45.271Z,938.33
2023-01-17T01:17:35.273Z,938.29
2023-01-17T01:18:25.253Z,938.34
2023-01-17T01:19:15.273Z,938.28
2023-01-17T01:20:05.261Z,938.31
2023-01-17T01:20:55.239Z,938.34
2023-01-17T01:21:45.211Z,938.36
2023-01-17T01:22:35.216Z,938.35
2023-01-17T01:23:25.201Z,938.40
2023-01-17T01:24:15.200Z,938.34
2023-01-17T01:25:05.181Z,938.31
2023-01-17T01:25:55.191Z,938.31
2023-01-17T01:26:45.180Z,938.33
2023-01-17T01:27:35.247Z,938.36
2023-01-17T01:28:25.171Z,938.36
2023-01-17T01:29:15.148Z,938.36
2023-01-17T01:30:05.132Z,938.36
2023-01-17T01:30:55.115Z,938.36
2023-01-17T01:31:45.149Z,938.36
2023-01-17T01:32:35.123Z,938.41
2023-01-17T01:33:25.123Z,938.37
2023-01-17T01:34:15.077Z,938.40
2023-01-17T01:35:05.069Z,938.35
2023-01-17T01:35:55.068Z,938.36
2023-01-17T01:36:45.070Z,938.37
2023-01-17T01:37:35.072Z,938.32
2023-01-17T01:38:25.048Z,938.32
2023-01-17T01:39:15.040Z,938.36
2023-01-17T01:40:05.024Z,938.34
2023-01-17T01:40:55.047Z,938.30
2023-01-17T01:41:45.019Z,938.29
2023-01-17T01:42:35.030Z,938.27
2023-01-17T01:43:24.987Z,938.37
2023-01-17T01:44:14.984Z,938.30
2023-01-17T01:45:04.975Z,938.26
2023-01-17T01:45:54.964Z,938.25
2023-01-17T01:46:44.958Z,938.27
2023-01-17T01:47:34.946Z,938.25
2023-01-17T01:48:24.929Z,938.21
2023-01-17T01:49:14.929Z,938.26
2023-01-17T01:50:04.919Z,938.26
2023-01-17T01:50:54.932Z,938.36
2023-01-17T01:51:44.898Z,938.42
2023-01-17T01:52:34.945Z,938.39
2023-01-17T01:53:24.894Z,938.37
2023-01-17T01:54:14.877Z,938.42
2023-01-17T01:55:04.865Z,938.35
2023-01-17T01:55:54.853Z,938.35
2023-01-17T01:56:44.834Z,938.34
2023-01-17T01:57:34.853Z,938.31
2023-01-17T01:58:24.838Z,938.31
2023-01-17T01:59:14.809Z,938.34
2023-01-17T02:00:04.850Z,938.39
2023-01-17T02:00:54.870Z,938.38
2023-01-17T02:01:44.941Z,938.35
2023-01-17T02:02:34.784Z,938.37
2023-01-17T02:03:24.781Z,938.39
2023-01-17T02:04:14.758Z,938.40
2023-01-17T02:05:04.985Z,938.37
2023-01-17T02:05:54.748Z,938.39
2023-01-17T02:06:44.743Z,938.41
2023-01-17T02:07:34.741Z,938.41
2023-01-17T02:08:24.702Z,938.39
2023-01-17T02:09:14.732Z,938.43
2023-01-17T02:10:04.711Z,938.44
2023-01-17T02:10:54.692Z,938.47
2023-01-17T02:11:44.683Z,938.43
2023-01-17T02:12:34.674Z,938.47
2023-01-17T02:13:24.664Z,938.47
2023-01-17T02:14:14.656Z,938.46
2023-01-17T02:15:04.641Z,938.45
2023-01-17T02:15:54.659Z,938.48
2023-01-17T02:16:44.645Z,938.41
2023-01-17T02:17:34.625Z,938.36
2023-01-17T02:18:24.611Z,938.41
2023-01-17T02:19:14.584Z,938.42
2023-01-17T02:20:04.661Z,938.39
2023-01-17T02:20:54.579Z,938.40
2023-01-17T02:21:44.615Z,938.40
2023-01-17T02:22:34.563Z,938.40
2023-01-17T02:23:24.549Z,938.40
2023-01-17T02:24:14.554Z,938.37
2023-01-17T02:25:04.546Z,938.38
2023-01-17T02:25:54.536Z,938.38
2023-01-17T02:26:44.542Z,938.37
2023-01-17T02:27:34.519Z,938.40
2023-01-17T02:28:24.513Z,938.41
2023-01-17T02:29:14.481Z,938.42
2023-01-17T02:30:04.479Z,938.47
2023-01-17T02:30:54.489Z,938.47
2023-01-17T02:31:44.562Z,938.47
2023-01-17T02:32:34.482Z,938.48
2023-01-17T02:33:24.584Z,938.45
2023-01-17T02:34:14.416Z,938.47
2023-01-17T02:35:04.428Z,938.49
2023-01-17T02:35:54.453Z,938.44
2023-01-17T02:36:44.417Z,938.43
2023-01-17T02:37:34.406Z,938.45
2023-01-17T02:38:24.398Z,938.46
2023-01-17T02:39:14.385Z,938.46
2023-01-17T02:40:04.381Z,938.50
2023-01-17T02:40:54.365Z,938.49
2023-01-17T02:41:44.363Z,938.45
2023-01-17T02:42:34.402Z,938.48
2023-01-17T02:43:24.337Z,938.47
2023-01-17T02:44:14.331Z,938.47
2023-01-17T02:45:04.327Z,938.47
2023-01-17T02:45:54.361Z,938.49
2023-01-17T02:46:44.342Z,938.45
2023-01-17T02:47:34.300Z,938.39
2023-01-17T02:48:24.314Z,938.38
2023-01-17T02:49:14.272Z,938.39
2023-01-17T02:50:04.285Z,938.42
2023-01-17T02:50:54.246Z,938.42
2023-01-17T02:51:44.252Z,938.41
2023-01-17T02:52:34.250Z,938.44
2023-01-17T02:53:24.227Z,938.46
2023-01-17T02:54:14.205Z,938.47
2023-01-17T02:55:04.207Z,938.38
2023-01-17T02:55:54.198Z,938.35
2023-01-17T02:56:44.187Z,938.41
2023-01-17T02:57:34.210Z,938.38
2023-01-17T02:58:24.169Z,938.42
2023-01-17T02:59:14.157Z,938.41
2023-01-17T03:00:04.154Z,938.37
2023-01-17T03:00:54.188Z,938.37
2023-01-17T03:01:44.276Z,938.37
2023-01-17T03:02:34.196Z,938.36
2023-01-17T03:03:24.133Z,938.35
2023-01-17T03:04:14.100Z,938.32
2023-01-17T03:05:04.104Z,938.34
2023-01-17T03:05:54.079Z,938.36
2023-01-17T03:06:44.088Z,938.32
2023-01-17T03:07:34.149Z,938.22
2023-01-17T03:08:24.061Z,938.27
2023-01-17T03:09:14.063Z,938.26
2023-01-17T03:10:04.079Z,938.27
2023-01-17T03:10:54.035Z,938.27
2023-01-17T03:11:44.029Z,938.24
2023-01-17T03:12:34.045Z,938.23
2023-01-17T03:13:23.999Z,938.27
2023-01-17T03:14:14.009Z,938.25
2023-01-17T03:15:03.989Z,938.23
2023-01-17T03:15:53.971Z,938.19
2023-01-17T03:16:44.054Z,938.20
2023-01-17T03:17:34.028Z,938.16
2023-01-17T03:18:23.944Z,938.14
2023-01-17T03:19:13.950Z,938.13
2023-01-17T03:20:03.941Z,938.14
2023-01-17T03:20:53.927Z,938.19
2023-01-17T03:21:43.908Z,938.19
2023-01-17T03:22:33.933Z,938.22
2023-01-17T03:23:23.907Z,938.20
2023-01-17T03:24:13.893Z,938.17
2023-01-17T03:25:03.875Z,938.20
2023-01-17T03:25:53.879Z,938.16
2023-01-17T03:26:43.848Z,938.16
2023-01-17T03:27:33.890Z,938.14
2023-01-17T03:28:23.848Z,938.14
2023-01-17T03:29:13.825Z,938.15
2023-01-17T03:30:03.827Z,938.15
2023-01-17T03:30:53.855Z,938.18
2023-01-17T03:31:43.807Z,938.13
2023-01-17T03:32:33.804Z,938.16
2023-01-17T03:33:23.789Z,938.15
2023-01-17T03:34:13.773Z,938.13
2023-01-17T03:35:03.776Z,938.12
2023-01-17T03:35:53.820Z,938.17
2023-01-17T03:36:43.782Z,938.15
2023-01-17T03:37:33.749Z,938.16
2023-01-17T03:38:23.728Z,938.13
2023-01-17T03:39:13.737Z,938.16
2023-01-17T03:40:03.715Z,938.08
2023-01-17T03:40:53.719Z,938.09
2023-01-17T03:41:43.715Z,938.07
2023-01-17T03:42:33.698Z,938.10
2023-01-17T03:43:23.673Z,938.14
2023-01-17T03:44:13.685Z,938.12
2023-01-17T03:45:03.676Z,938.10
2023-01-17T03:45:53.650Z,938.12
2023-01-17T03:46:43.648Z,938.08
2023-01-17T03:47:33.651Z,938.08
2023-01-17T03:48:23.698Z,938.06
2023-01-17T03:49:13.602Z,938.08
2023-01-17T03:50:03.618Z,938.10
2023-01-17T03:50:53.616Z,938.06
2023-01-17T03:51:43.595Z,938.09
2023-01-17T03:52:33.605Z,938.06
2023-01-17T03:53:23.575Z,938.06
2023-01-17T03:54:13.557Z,938.03
2023-01-17T03:55:03.588Z,938.06
2023-01-17T03:55:53.550Z,938.10
2023-01-17T03:56:43.541Z,938.06
2023-01-17T03:57:33.552Z,938.06
2023-01-17T03:58:23.509Z,938.07
2023-01-17T03:59:13.500Z,938.07
2023-01-17T04:00:03.525Z,938.10
2023-01-17T04:00:53.563Z,938.12
2023-01-17T04:01:43.663Z,938.06
2023-01-17T04:02:33.489Z,938.10
2023-01-17T04:03:23.471Z,938.08
2023-01-17T04:04:13.451Z,938.13
2023-01-17T04:05:03.444Z,938.10
2023-01-17T04:05:53.429Z,938.10
2023-01-17T04:06:43.412Z,938.06
2023-01-17T04:07:33.414Z,938.08
2023-01-17T04:08:23.401Z,938.04
2023-01-17T04:09:13.435Z,938.05
2023-01-17T04:10:03.393Z,938.11
2023-01-17T04:10:53.376Z,938.06
2023-01-17T04:11:43.401Z,938.03
2023-01-17T04:12:33.380Z,938.04
2023-01-17T04:13:23.375Z,938.05
2023-01-17T04:14:13.348Z,938.04
2023-01-17T04:15:03.354Z,938.07
2023-01-17T04:15:53.321Z,938.05
2023-01-17T04:16:43.353Z,938.01
2023-01-17T04:17:33.326Z,938.00
2023-01-17T04:18:23.305Z,937.98
2023-01-17T04:19:13.291Z,937.95
2023-01-17T04:20:03.288Z,937.94
2023-01-17T04:20:53.269Z,937.93
2023-01-17T04:21:43.250Z,937.93
2023-01-17T04:22:33.267Z,937.87
2023-01-17T04:23:23.330Z,937.96
2023-01-17T04:24:13.236Z,937.91
2023-01-17T04:25:03.213Z,937.92
2023-01-17T04:25:53.216Z,937.92
2023-01-17T04:26:43.198Z,937.91
2023-01-17T04:27:33.246Z,937.87
2023-01-17T04:28:23.182Z,937.87
2023-01-17T04:29:13.179Z,937.93
2023-01-17T04:30:03.158Z,937.95
2023-01-17T04:30:53.176Z,937.96
2023-01-17T04:31:43.184Z,938.00
2023-01-17T04:32:33.156Z,937.95
2023-01-17T04:33:23.127Z,937.90
2023-01-17T04:34:13.125Z,937.89
2023-01-17T04:35:03.183Z,937.93
2023-01-17T04:35:53.108Z,937.96
2023-01-17T04:36:43.130Z,937.94
2023-01-17T04:37:33.110Z,937.96
2023-01-17T04:38:23.076Z,937.91
2023-01-17T04:39:13.084Z,937.86
2023-01-17T04:40:03.081Z,937.90
2023-01-17T04:40:53.060Z,937.86
2023-01-17T04:41:43.038Z,937.86
2023-01-17T04:42:33.094Z,937.87
2023-01-17T04:43:23.038Z,937.84
2023-01-17T04:44:13.018Z,937.81
2023-01-17T04:45:03.030Z,937.84
2023-01-17T04:45:53.037Z,937.87
2023-01-17T04:46:42.992Z,937.79
2023-01-17T04:47:33.006Z,937.83
2023-01-17T04:48:22.983Z,937.78
2023-01-17T04:49:12.963Z,937.78
2023-01-17T04:50:02.948Z,937.79
2023-01-17T04:50:52.980Z,937.80
2023-01-17T04:51:42.959Z,937.82
2023-01-17T04:52:32.949Z,937.83
2023-01-17T04:53:22.917Z,937.79
2023-01-17T04:54:12.915Z,937.80
2023-01-17T04:55:02.933Z,937.85
2023-01-17T04:55:52.878Z,937.81
2023-01-17T04:56:42.921Z,937.84
2023-01-17T04:57:32.902Z,937.81
2023-01-17T04:58:22.893Z,937.77
2023-01-17T04:59:12.856Z,937.80
2023-01-17T05:00:02.843Z,937.77
2023-01-17T05:00:52.898Z,937.80
2023-01-17T05:01:42.987Z,937.81
2023-01-17T05:02:32.884Z,937.80
2023-01-17T05:03:22.805Z,937.78
2023-01-17T05:04:12.849Z,937.78
2023-01-17T05:05:02.782Z,937.75
2023-01-17T05:05:52.792Z,937.76
2023-01-17T05:06:42.786Z,937.77
2023-01-17T05:07:35.009Z,937.75
2023-01-17T05:08:22.793Z,937.74
2023-01-17T05:09:12.755Z,937.77
2023-01-17T05:10:02.731Z,937.74
2023-01-17T05:10:52.749Z,937.78
2023-01-17T05:11:42.705Z,937.75
2023-01-17T05:12:32.740Z,937.77
2023-01-17T05:13:22.679Z,937.74
2023-01-17T05:14:12.689Z,937.75
2023-01-17T05:15:02.672Z,937.74
2023-01-17T05:15:52.672Z,937.70
2023-01-17T05:16:42.660Z,937.67
2023-01-17T05:17:32.665Z,937.69
2023-01-17T05:18:22.638Z,937.65
2023-01-17T05:19:12.979Z,937.68
2023-01-17T05:20:02.617Z,937.68
2023-01-17T05:20:52.604Z,937.66
2023-01-17T05:21:42.605Z,937.71
2023-01-17T05:22:32.599Z,937.71
2023-01-17T05:23:22.579Z,937.70
2023-01-17T05:24:12.574Z,937.69
2023-01-17T05:25:02.560Z,937.67
2023-01-17T05:25:52.556Z,937.68
2023-01-17T05:26:42.600Z,937.68
2023-01-17T05:27:32.572Z,937.67
2023-01-17T05:28:22.534Z,937.63
2023-01-17T05:29:12.545Z,937.64
2023-01-17T05:30:02.516Z,937.65
2023-01-17T05:30:52.599Z,937.61
2023-01-17T05:31:42.493Z,937.63
2023-01-17T05:32:32.495Z,937.65
2023-01-17T05:33:22.465Z,937.65
2023-01-17T05:34:12.476Z,937.62
2023-01-17T05:35:02.473Z,937.59
2023-01-17T05:35:52.443Z,937.60
2023-01-17T05:36:42.440Z,937.55
2023-01-17T05:37:32.451Z,937.55
2023-01-17T05:38:22.428Z,937.54
2023-01-17T05:39:12.411Z,937.54
2023-01-17T05:40:02.411Z,937.57
2023-01-17T05:40:52.412Z,937.58
2023-01-17T05:41:42.372Z,937.61
2023-01-17T05:42:32.418Z,937.61
2023-01-17T05:43:22.359Z,937.60
2023-01-17T05:44:12.354Z,937.60
2023-01-17T05:45:02.344Z,937.59
2023-01-17T05:45:52.511Z,937.56
2023-01-17T05:46:42.331Z,937.57
2023-01-17T05:47:32.344Z,937.60
2023-01-17T05:48:22.309Z,937.62
2023-01-17T05:49:12.314Z,937.57
2023-01-17T05:50:02.313Z,937.59
2023-01-17T05:50:52.287Z,937.55
2023-01-17T05:51:42.276Z,937.54
2023-01-17T05:52:32.332Z,937.54
2023-01-17T05:53:22.242Z,937.52
2023-01-17T05:54:12.264Z,937.49
2023-01-17T05:55:02.247Z,937.47
2023-01-17T05:55:52.237Z,937.46
2023-01-17T05:56:42.227Z,937.45
2023-01-17T05:57:32.232Z,937.40
2023-01-17T05:58:22.233Z,937.40
2023-01-17T05:59:14.189Z,937.41
2023-01-17T06:00:02.210Z,937.42
2023-01-17T06:00:52.209Z,937.40
2023-01-17T06:01:42.183Z,937.37
2023-01-17T06:02:32.235Z,937.39
2023-01-17T06:03:22.160Z,937.34
2023-01-17T06:04:12.187Z,937.33
2023-01-17T06:05:03.503Z,937.35
2023-01-17T06:05:52.133Z,937.34
2023-01-17T06:06:42.117Z,937.38
2023-01-17T06:07:32.117Z,937.35
2023-01-17T06:08:22.083Z,937.38
2023-01-17T06:09:12.088Z,937.40
2023-01-17T06:10:02.075Z,937.39
2023-01-17T06:10:52.126Z,937.44
2023-01-17T06:11:42.055Z,937.47
2023-01-17T06:12:32.058Z,937.47
2023-01-17T06:13:22.103Z,937.44
2023-01-17T06:14:12.041Z,937.45
2023-01-17T06:15:02.020Z,937.43
2023-01-17T06:15:52.079Z,937.44
2023-01-17T06:16:41.994Z,937.45
2023-01-17T06:17:32.014Z,937.37
2023-01-17T06:18:21.985Z,937.37
2023-01-17T06:19:11.987Z,937.36
2023-01-17T06:20:01.998Z,937.36
2023-01-17T06:20:51.972Z,937.34
2023-01-17T06:21:41.938Z,937.31
2023-01-17T06:22:31.962Z,937.29
2023-01-17T06:23:21.934Z,937.28
2023-01-17T06:24:11.916Z,937.28
2023-01-17T06:25:01.896Z,937.25
2023-01-17T06:25:51.894Z,937.27
2023-01-17T06:26:41.915Z,937.26
2023-01-17T06:27:31.991Z,937.26
2023-01-17T06:28:21.892Z,937.23
2023-01-17T06:29:11.902Z,937.24
2023-01-17T06:30:01.886Z,937.19
2023-01-17T06:30:51.850Z,937.24
2023-01-17T06:31:41.826Z,937.23
2023-01-17T06:32:31.842Z,937.24
2023-01-17T06:33:21.815Z,937.20
2023-01-17T06:34:11.827Z,937.22
2023-01-17T06:35:01.815Z,937.21
2023-01-17T06:35:51.806Z,937.21
2023-01-17T06:36:41.771Z,937.19
2023-01-17T06:37:31.790Z,937.18
2023-01-17T06:38:21.795Z,937.24
2023-01-17T06:39:14.108Z,937.27
2023-01-17T06:40:01.758Z,937.22
2023-01-17T06:40:51.742Z,937.23
2023-01-17T06:41:41.734Z,937.17
2023-01-17T06:42:31.729Z,937.15
2023-01-17T06:43:21.717Z,937.14
2023-01-17T06:44:11.718Z,937.14
2023-01-17T06:45:01.762Z,937.14
2023-01-17T06:45:51.677Z,937.09
2023-01-17T06:46:41.730Z,937.11
2023-01-17T06:47:31.687Z,937.09
2023-01-17T06:48:21.647Z,937.10
2023-01-17T06:49:11.664Z,937.08
2023-01-17T06:50:01.714Z,937.09
2023-01-17T06:50:51.628Z,937.06
2023-01-17T06:51:43.571Z,937.09
2023-01-17T06:52:31.651Z,937.10
2023-01-17T06:53:21.592Z,937.11
2023-01-17T06:54:11.591Z,937.14
2023-01-17T06:55:01.636Z,937.12
2023-01-17T06:55:51.573Z,937.15
2023-01-17T06:56:41.561Z,937.13
2023-01-17T06:57:31.577Z,937.15
2023-01-17T06:58:21.541Z,937.16
2023-01-17T06:59:11.539Z,937.17
2023-01-17T07:00:01.615Z,937.21
2023-01-17T07:00:51.653Z,937.19
2023-01-17T07:01:41.677Z,937.23
2023-01-17T07:02:31.517Z,937.27
2023-01-17T07:03:21.499Z,937.28
2023-01-17T07:04:11.555Z,937.31
2023-01-17T07:05:01.478Z,937.34
2023-01-17T07:05:51.486Z,937.32
2023-01-17T07:06:41.459Z,937.31
2023-01-17T07:07:33.669Z,937.39
2023-01-17T07:08:21.435Z,937.37
2023-01-17T07:09:11.485Z,937.36
2023-01-17T07:10:01.442Z,937.33
2023-01-17T07:10:51.415Z,937.32
2023-01-17T07:11:41.401Z,937.27
2023-01-17T07:12:31.412Z,937.27
2023-01-17T07:13:21.388Z,937.22
2023-01-17T07:14:11.367Z,937.24
2023-01-17T07:15:01.389Z,937.21
2023-01-17T07:15:58.376Z,937.17
2023-01-17T07:16:48.328Z,937.18
2023-01-17T07:17:31.348Z,937.17
2023-01-17T07:18:21.316Z,937.18
2023-01-17T07:19:11.325Z,937.18
2023-01-17T07:20:01.300Z,937.17
2023-01-17T07:20:51.307Z,937.21
2023-01-17T07:21:41.289Z,937.22
2023-01-17T07:22:31.287Z,937.21
2023-01-17T07:23:21.271Z,937.19
2023-01-17T07:24:11.261Z,937.21
2023-01-17T07:25:01.245Z,937.25
2023-01-17T07:25:51.271Z,937.28
2023-01-17T07:26:41.244Z,937.26
2023-01-17T07:27:31.301Z,937.24
2023-01-17T07:28:21.237Z,937.26
2023-01-17T07:29:11.215Z,937.24
2023-01-17T07:30:01.223Z,937.25
2023-01-17T07:30:51.208Z,937.22
2023-01-17T07:31:41.214Z,937.26
2023-01-17T07:32:31.184Z,937.21
2023-01-17T07:33:21.165Z,937.18
2023-01-17T07:34:11.158Z,937.21
2023-01-17T07:35:01.137Z,937.12
2023-01-17T07:35:51.141Z,937.14
2023-01-17T07:36:41.116Z,937.20
2023-01-17T07:37:31.142Z,937.18
2023-01-17T07:38:21.132Z,937.13
2023-01-17T07:39:11.095Z,937.14
2023-01-17T07:40:01.143Z,937.18
2023-01-17T07:40:51.111Z,937.20
2023-01-17T07:41:41.145Z,937.22
2023-01-17T07:42:31.078Z,937.26
2023-01-17T07:43:21.057Z,937.28
2023-01-17T07:44:11.053Z,937.27
2023-01-17T07:45:01.030Z,937.29
2023-01-17T07:45:51.039Z,937.26
2023-01-17T07:46:41.051Z,937.24
2023-01-17T07:47:31.029Z,937.27
2023-01-17T07:48:21.004Z,937.24
2023-01-17T07:49:11.006Z,937.24
2023-01-17T07:50:00.986Z,937.26
2023-01-17T07:50:50.979Z,937.23
2023-01-17T07:51:40.961Z,937.22
2023-01-17T07:52:31.022Z,937.25
2023-01-17T07:53:20.955Z,937.23
2023-01-17T07:54:10.941Z,937.27
2023-01-17T07:55:00.946Z,937.27
2023-01-17T07:55:50.918Z,937.18
2023-01-17T07:56:40.936Z,937.15
2023-01-17T07:57:30.920Z,937.15
2023-01-17T07:58:20.894Z,937.12
2023-01-17T07:59:10.898Z,937.16
2023-01-17T08:00:00.871Z,937.20
2023-01-17T08:00:50.987Z,937.20
2023-01-17T08:01:41.002Z,937.17
2023-01-17T08:02:30.852Z,937.17
2023-01-17T08:03:20.857Z,937.13
2023-01-17T08:04:10.839Z,937.09
2023-01-17T08:05:00.820Z,937.09
2023-01-17T08:05:50.828Z,937.08
2023-01-17T08:06:40.810Z,937.08
2023-01-17T08:07:30.802Z,937.08
2023-01-17T08:08:20.780Z,937.08
2023-01-17T08:09:10.778Z,937.08
2023-01-17T08:10:00.783Z,937.11
2023-01-17T08:10:50.748Z,937.12
2023-01-17T08:11:40.740Z,937.12
2023-01-17T08:12:30.748Z,937.13
2023-01-17T08:13:20.723Z,937.08
2023-01-17T08:14:10.712Z,937.08
2023-01-17T08:15:00.744Z,937.05
2023-01-17T08:15:50.692Z,937.05
2023-01-17T08:16:40.720Z,937.04
2023-01-17T08:17:30.705Z,937.07
2023-01-17T08:18:20.682Z,937.03
2023-01-17T08:19:10.653Z,937.03
2023-01-17T08:20:00.648Z,937.03
2023-01-17T08:20:50.647Z,937.02
2023-01-17T08:21:40.653Z,937.03
2023-01-17T08:22:30.717Z,937.02
2023-01-17T08:23:20.630Z,937.05
2023-01-17T08:24:10.603Z,937.07
2023-01-17T08:25:00.619Z,937.08
2023-01-17T08:25:50.582Z,937.09
2023-01-17T08:26:40.583Z,937.10
2023-01-17T08:27:30.587Z,937.06
2023-01-17T08:28:20.582Z,937.08
2023-01-17T08:29:10.612Z,937.02
2023-01-17T08:30:00.534Z,937.05
2023-01-17T08:30:50.541Z,937.06
2023-01-17T08:31:40.659Z,936.98
2023-01-17T08:32:30.570Z,936.99
2023-01-17T08:33:20.508Z,936.98
2023-01-17T08:34:10.486Z,936.99
2023-01-17T08:35:00.490Z,936.96
2023-01-17T08:35:50.511Z,936.99
2023-01-17T08:36:40.492Z,936.97
2023-01-17T08:37:30.464Z,936.93
2023-01-17T08:38:20.488Z,936.94
2023-01-17T08:39:10.438Z,936.90
2023-01-17T08:40:00.473Z,936.92
2023-01-17T08:40:50.419Z,936.88
2023-01-17T08:41:40.425Z,936.85
2023-01-17T08:42:30.421Z,936.85
2023-01-17T08:43:20.393Z,936.86
2023-01-17T08:44:10.424Z,936.86
2023-01-17T08:45:00.393Z,936.80
2023-01-17T08:45:50.414Z,936.79
2023-01-17T08:46:40.348Z,936.76
2023-01-17T08:47:30.371Z,936.71
2023-01-17T08:48:20.378Z,936.70
2023-01-17T08:49:10.357Z,936.70
2023-01-17T08:50:00.347Z,936.70
2023-01-17T08:50:50.336Z,936.70
2023-01-17T08:51:40.309Z,936.71
2023-01-17T08:52:30.316Z,936.69
2023-01-17T08:53:20.300Z,936.71
2023-01-17T08:54:10.305Z,936.66
2023-01-17T08:55:00.278Z,936.62
2023-01-17T08:55:50.267Z,936.62
2023-01-17T08:56:40.257Z,936.55
2023-01-17T08:57:30.245Z,936.50
2023-01-17T08:58:20.258Z,936.53
2023-01-17T08:59:10.214Z,936.51
2023-01-17T09:00:00.235Z,936.52
2023-01-17T09:00:50.273Z,936.50
2023-01-17T09:01:40.294Z,936.48
2023-01-17T09:02:30.198Z,936.50
2023-01-17T09:03:21.364Z,936.44
2023-01-17T09:04:10.255Z,936.47
2023-01-17T09:05:00.264Z,936.42
2023-01-17T09:05:50.145Z,936.42
2023-01-17T09:06:40.143Z,936.37
2023-01-17T09:07:30.123Z,936.37
2023-01-17T09:08:20.125Z,936.32
2023-01-17T09:09:10.125Z,936.33
2023-01-17T09:10:00.149Z,936.33
2023-01-17T09:10:50.094Z,936.30
2023-01-17T09:11:40.077Z,936.25
2023-01-17T09:12:30.095Z,936.26
2023-01-17T09:13:20.073Z,936.25
2023-01-17T09:14:10.051Z,936.20
2023-01-17T09:15:00.121Z,936.25
2023-01-17T09:15:50.058Z,936.23
2023-01-17T09:16:40.122Z,936.23
2023-01-17T09:17:30.046Z,936.22
2023-01-17T09:18:20.027Z,936.24
2023-01-17T09:19:10.020Z,936.22
2023-01-17T09:20:00.039Z,936.21
2023-01-17T09:20:49.973Z,936.26
2023-01-17T09:21:39.988Z,936.28
2023-01-17T09:22:29.990Z,936.27
2023-01-17T09:23:19.972Z,936.33
2023-01-17T09:24:09.944Z,936.34
2023-01-17T09:24:59.943Z,936.32
2023-01-17T09:25:49.921Z,936.33
2023-01-17T09:26:39.922Z,936.29
2023-01-17T09:27:29.916Z,936.31
2023-01-17T09:28:19.915Z,936.31
2023-01-17T09:29:09.956Z,936.29
2023-01-17T09:29:59.904Z,936.28
2023-01-17T09:30:49.958Z,936.31
2023-01-17T09:31:39.880Z,936.34
2023-01-17T09:32:29.918Z,936.30
2023-01-17T09:33:19.850Z,936.37
2023-01-17T09:34:09.852Z,936.33
2023-01-17T09:34:59.847Z,936.31
2023-01-17T09:35:49.819Z,936.33
2023-01-17T09:36:39.825Z,936.34
2023-01-17T09:37:29.803Z,936.28
2023-01-17T09:38:19.808Z,936.30
2023-01-17T09:39:09.797Z,936.32
2023-01-17T09:39:59.872Z,936.28
2023-01-17T09:40:49.763Z,936.27
2023-01-17T09:41:39.768Z,936.22
2023-01-17T09:42:29.769Z,936.24
2023-01-17T09:43:19.740Z,936.27
2023-01-17T09:44:09.739Z,936.26
2023-01-17T09:44:59.734Z,936.26
2023-01-17T09:45:49.746Z,936.23
2023-01-17T09:46:39.705Z,936.22
2023-01-17T09:47:29.728Z,936.27
2023-01-17T09:48:19.717Z,936.23
2023-01-17T09:49:09.695Z,936.21
2023-01-17T09:49:59.674Z,936.21
2023-01-17T09:50:49.646Z,936.16
2023-01-17T09:51:39.675Z,936.22
2023-01-17T09:52:29.660Z,936.14
2023-01-17T09:53:19.646Z,936.16
2023-01-17T09:54:09.604Z,936.15
2023-01-17T09:54:59.605Z,936.14
2023-01-17T09:55:49.604Z,936.18
2023-01-17T09:56:39.604Z,936.18
2023-01-17T09:57:29.583Z,936.13
2023-01-17T09:58:19.603Z,936.13
2023-01-17T09:59:09.568Z,936.13
2023-01-17T10:00:03.583Z,936.18
2023-01-17T10:00:49.573Z,936.17
2023-01-17T10:01:39.762Z,936.17
2023-01-17T10:02:29.821Z,936.12
2023-01-17T10:03:19.599Z,936.14
2023-01-17T10:04:09.573Z,936.17
2023-01-17T10:04:59.503Z,936.23
2023-01-17T10:05:49.498Z,936.20
2023-01-17T10:06:39.493Z,936.20
2023-01-17T10:07:29.500Z,936.18
2023-01-17T10:08:19.472Z,936.18
2023-01-17T10:09:09.445Z,936.21
2023-01-17T10:09:59.451Z,936.16
2023-01-17T10:10:49.432Z,936.18
2023-01-17T10:11:39.422Z,936.20
2023-01-17T10:12:29.440Z,936.18
2023-01-17T10:13:19.546Z,936.24
2023-01-17T10:14:09.400Z,936.21
2023-01-17T10:14:59.401Z,936.27
2023-01-17T10:15:49.381Z,936.22
2023-01-17T10:16:39.404Z,936.26
2023-01-17T10:17:29.360Z,936.26
2023-01-17T10:18:29.648Z,936.33
2023-01-17T10:19:10.380Z,936.30
2023-01-17T10:19:59.382Z,936.29
2023-01-17T10:20:49.349Z,936.35
2023-01-17T10:21:39.318Z,936.28
2023-01-17T10:22:29.340Z,936.26
2023-01-17T10:23:19.308Z,936.16